sensor_id;sensor_type;location;lat;lon;timestamp;P1;durP1;ratioP1;P2;durP2;ratioP2
72569;SDS011;60594;50.204;8.844;2023-09-18T00:01:31;7.32;;;4.07;;
72569;SDS011;60594;50.204;8.844;2023-09-18T00:03:58;11.27;;;4.22;;
72569;SDS011;60594;50.204;8.844;2023-09-18T00:06:24;10.57;;;4.43;;
72569;SDS011;60594;50.204;8.844;2023-09-18T00:08:51;9.32;;;4.18;;
72569;SDS011;60594;50.204;8.844;2023-09-18T00:11:18;7.22;;;4.13;;
72569;SDS011;60594;50.204;8.844;2023-09-18T00:13:54;6.45;;;4.15;;
72569;SDS011;60594;50.204;8.844;2023-09-18T00:16:20;7.40;;;3.90;;
72569;SDS011;60594;50.204;8.844;2023-09-18T00:18:47;7.10;;;3.90;;
72569;SDS011;60594;50.204;8.844;2023-09-18T00:21:13;5.97;;;3.45;;
72569;SDS011;60594;50.204;8.844;2023-09-18T00:23:40;6.95;;;3.63;;
72569;SDS011;60594;50.204;8.844;2023-09-18T00:26:07;6.15;;;3.50;;
72569;SDS011;60594;50.204;8.844;2023-09-18T00:28:34;9.80;;;3.60;;
72569;SDS011;60594;50.204;8.844;2023-09-18T00:31:00;6.00;;;3.45;;
72569;SDS011;60594;50.204;8.844;2023-09-18T00:33:28;7.32;;;4.28;;
72569;SDS011;60594;50.204;8.844;2023-09-18T00:35:54;7.60;;;3.22;;
72569;SDS011;60594;50.204;8.844;2023-09-18T00:38:21;8.55;;;3.70;;
72569;SDS011;60594;50.204;8.844;2023-09-18T00:40:48;7.20;;;3.75;;
72569;SDS011;60594;50.204;8.844;2023-09-18T00:43:14;6.03;;;3.22;;
72569;SDS011;60594;50.204;8.844;2023-09-18T00:45:44;6.20;;;3.50;;
72569;SDS011;60594;50.204;8.844;2023-09-18T00:48:12;8.23;;;3.78;;
72569;SDS011;60594;50.204;8.844;2023-09-18T00:53:07;6.82;;;3.72;;
72569;SDS011;60594;50.204;8.844;2023-09-18T00:55:36;5.75;;;3.58;;
72569;SDS011;60594;50.204;8.844;2023-09-18T00:58:04;5.97;;;3.88;;
72569;SDS011;60594;50.204;8.844;2023-09-18T01:00:33;7.53;;;3.85;;
72569;SDS011;60594;50.204;8.844;2023-09-18T01:03:00;7.45;;;3.90;;
72569;SDS011;60594;50.204;8.844;2023-09-18T01:05:32;5.93;;;3.80;;
72569;SDS011;60594;50.204;8.844;2023-09-18T01:07:59;6.40;;;3.42;;
72569;SDS011;60594;50.204;8.844;2023-09-18T01:10:28;7.55;;;3.50;;
72569;SDS011;60594;50.204;8.844;2023-09-18T01:15:42;7.32;;;4.13;;
72569;SDS011;60594;50.204;8.844;2023-09-18T01:18:14;6.22;;;3.78;;
72569;SDS011;60594;50.204;8.844;2023-09-18T01:20:40;9.07;;;3.63;;
72569;SDS011;60594;50.204;8.844;2023-09-18T01:23:07;8.52;;;3.42;;
72569;SDS011;60594;50.204;8.844;2023-09-18T01:25:34;6.95;;;4.10;;
72569;SDS011;60594;50.204;8.844;2023-09-18T01:28:00;7.22;;;4.03;;
72569;SDS011;60594;50.204;8.844;2023-09-18T01:30:27;6.80;;;3.53;;
72569;SDS011;60594;50.204;8.844;2023-09-18T01:32:54;6.57;;;3.83;;
72569;SDS011;60594;50.204;8.844;2023-09-18T01:35:21;5.82;;;3.42;;
72569;SDS011;60594;50.204;8.844;2023-09-18T01:37:58;5.78;;;3.53;;
72569;SDS011;60594;50.204;8.844;2023-09-18T01:40:26;5.88;;;3.42;;
72569;SDS011;60594;50.204;8.844;2023-09-18T01:42:53;8.68;;;3.80;;
72569;SDS011;60594;50.204;8.844;2023-09-18T01:45:19;6.35;;;3.60;;
72569;SDS011;60594;50.204;8.844;2023-09-18T01:47:46;5.05;;;2.83;;
72569;SDS011;60594;50.204;8.844;2023-09-18T01:50:12;7.03;;;3.63;;
72569;SDS011;60594;50.204;8.844;2023-09-18T01:52:40;6.20;;;3.50;;
72569;SDS011;60594;50.204;8.844;2023-09-18T01:55:08;8.48;;;3.78;;
72569;SDS011;60594;50.204;8.844;2023-09-18T01:57:35;5.47;;;3.05;;
72569;SDS011;60594;50.204;8.844;2023-09-18T02:00:02;6.00;;;3.22;;
72569;SDS011;60594;50.204;8.844;2023-09-18T02:02:38;5.07;;;3.05;;
72569;SDS011;60594;50.204;8.844;2023-09-18T02:05:06;7.53;;;3.28;;
72569;SDS011;60594;50.204;8.844;2023-09-18T02:07:32;8.27;;;3.80;;
72569;SDS011;60594;50.204;8.844;2023-09-18T02:10:00;7.68;;;3.80;;
72569;SDS011;60594;50.204;8.844;2023-09-18T02:12:26;7.53;;;3.95;;
72569;SDS011;60594;50.204;8.844;2023-09-18T02:14:53;7.85;;;3.60;;
72569;SDS011;60594;50.204;8.844;2023-09-18T02:17:20;7.82;;;3.80;;
72569;SDS011;60594;50.204;8.844;2023-09-18T02:19:47;6.85;;;3.47;;
72569;SDS011;60594;50.204;8.844;2023-09-18T02:22:13;7.15;;;3.63;;
72569;SDS011;60594;50.204;8.844;2023-09-18T02:24:40;6.90;;;3.53;;
72569;SDS011;60594;50.204;8.844;2023-09-18T02:27:06;6.38;;;3.63;;
72569;SDS011;60594;50.204;8.844;2023-09-18T02:29:33;8.35;;;4.10;;
72569;SDS011;60594;50.204;8.844;2023-09-18T02:32:04;7.30;;;3.90;;
72569;SDS011;60594;50.204;8.844;2023-09-18T02:34:31;6.32;;;3.95;;
72569;SDS011;60594;50.204;8.844;2023-09-18T02:36:58;6.70;;;3.60;;
72569;SDS011;60594;50.204;8.844;2023-09-18T02:39:24;8.45;;;4.15;;
72569;SDS011;60594;50.204;8.844;2023-09-18T02:41:51;8.00;;;4.18;;
72569;SDS011;60594;50.204;8.844;2023-09-18T02:44:17;9.25;;;4.15;;
72569;SDS011;60594;50.204;8.844;2023-09-18T02:46:44;8.25;;;4.40;;
72569;SDS011;60594;50.204;8.844;2023-09-18T02:49:12;8.88;;;4.75;;
72569;SDS011;60594;50.204;8.844;2023-09-18T02:51:39;8.75;;;4.47;;
72569;SDS011;60594;50.204;8.844;2023-09-18T02:54:06;8.02;;;4.82;;
72569;SDS011;60594;50.204;8.844;2023-09-18T02:56:33;7.90;;;4.43;;
72569;SDS011;60594;50.204;8.844;2023-09-18T02:58:59;8.35;;;5.05;;
72569;SDS011;60594;50.204;8.844;2023-09-18T03:01:26;9.90;;;4.38;;
72569;SDS011;60594;50.204;8.844;2023-09-18T03:03:53;9.25;;;4.75;;
72569;SDS011;60594;50.204;8.844;2023-09-18T03:06:19;8.07;;;4.70;;
72569;SDS011;60594;50.204;8.844;2023-09-18T03:08:46;8.18;;;4.72;;
72569;SDS011;60594;50.204;8.844;2023-09-18T03:11:13;9.73;;;4.55;;
72569;SDS011;60594;50.204;8.844;2023-09-18T03:13:46;7.80;;;4.75;;
72569;SDS011;60594;50.204;8.844;2023-09-18T03:16:14;7.88;;;5.20;;
72569;SDS011;60594;50.204;8.844;2023-09-18T03:18:41;11.05;;;5.28;;
72569;SDS011;60594;50.204;8.844;2023-09-18T03:21:08;7.65;;;4.60;;
72569;SDS011;60594;50.204;8.844;2023-09-18T03:23:35;9.00;;;4.40;;
72569;SDS011;60594;50.204;8.844;2023-09-18T03:26:01;8.75;;;4.25;;
72569;SDS011;60594;50.204;8.844;2023-09-18T03:28:29;9.40;;;5.50;;
72569;SDS011;60594;50.204;8.844;2023-09-18T03:30:56;8.65;;;4.63;;
72569;SDS011;60594;50.204;8.844;2023-09-18T03:33:24;7.63;;;4.45;;
72569;SDS011;60594;50.204;8.844;2023-09-18T03:35:51;6.95;;;4.35;;
72569;SDS011;60594;50.204;8.844;2023-09-18T03:38:23;6.80;;;4.30;;
72569;SDS011;60594;50.204;8.844;2023-09-18T03:40:50;8.65;;;4.18;;
72569;SDS011;60594;50.204;8.844;2023-09-18T03:43:19;7.00;;;4.43;;
72569;SDS011;60594;50.204;8.844;2023-09-18T03:45:47;8.23;;;4.68;;
72569;SDS011;60594;50.204;8.844;2023-09-18T03:48:14;8.82;;;4.43;;
72569;SDS011;60594;50.204;8.844;2023-09-18T03:50:41;8.90;;;4.93;;
72569;SDS011;60594;50.204;8.844;2023-09-18T03:53:08;7.18;;;4.53;;
72569;SDS011;60594;50.204;8.844;2023-09-18T03:55:35;8.55;;;4.35;;
72569;SDS011;60594;50.204;8.844;2023-09-18T03:58:02;10.13;;;4.40;;
72569;SDS011;60594;50.204;8.844;2023-09-18T04:00:31;8.93;;;4.28;;
72569;SDS011;60594;50.204;8.844;2023-09-18T04:02:57;7.45;;;4.15;;
72569;SDS011;60594;50.204;8.844;2023-09-18T04:05:24;7.72;;;3.97;;
72569;SDS011;60594;50.204;8.844;2023-09-18T04:07:51;7.60;;;3.90;;
72569;SDS011;60594;50.204;8.844;2023-09-18T04:10:18;7.57;;;4.45;;
72569;SDS011;60594;50.204;8.844;2023-09-18T04:12:49;9.40;;;4.63;;
72569;SDS011;60594;50.204;8.844;2023-09-18T04:15:19;7.78;;;4.32;;
72569;SDS011;60594;50.204;8.844;2023-09-18T04:20:14;7.93;;;4.57;;
72569;SDS011;60594;50.204;8.844;2023-09-18T04:22:42;7.68;;;4.43;;
72569;SDS011;60594;50.204;8.844;2023-09-18T04:25:11;7.55;;;4.32;;
72569;SDS011;60594;50.204;8.844;2023-09-18T04:32:32;7.57;;;4.03;;
72569;SDS011;60594;50.204;8.844;2023-09-18T04:34:58;9.05;;;4.50;;
72569;SDS011;60594;50.204;8.844;2023-09-18T04:37:24;7.13;;;4.05;;
72569;SDS011;60594;50.204;8.844;2023-09-18T04:39:51;7.72;;;4.95;;
72569;SDS011;60594;50.204;8.844;2023-09-18T04:42:18;8.38;;;4.78;;
72569;SDS011;60594;50.204;8.844;2023-09-18T04:44:45;6.90;;;4.10;;
72569;SDS011;60594;50.204;8.844;2023-09-18T04:47:12;8.32;;;4.82;;
72569;SDS011;60594;50.204;8.844;2023-09-18T04:49:38;7.75;;;4.80;;
72569;SDS011;60594;50.204;8.844;2023-09-18T04:52:05;8.93;;;4.40;;
72569;SDS011;60594;50.204;8.844;2023-09-18T04:54:31;8.57;;;4.40;;
72569;SDS011;60594;50.204;8.844;2023-09-18T04:56:58;8.10;;;4.88;;
72569;SDS011;60594;50.204;8.844;2023-09-18T04:59:25;7.80;;;4.65;;
72569;SDS011;60594;50.204;8.844;2023-09-18T05:01:51;9.85;;;4.50;;
72569;SDS011;60594;50.204;8.844;2023-09-18T05:04:18;10.90;;;5.22;;
72569;SDS011;60594;50.204;8.844;2023-09-18T05:06:44;8.35;;;4.38;;
72569;SDS011;60594;50.204;8.844;2023-09-18T05:09:11;8.13;;;4.75;;
72569;SDS011;60594;50.204;8.844;2023-09-18T05:11:37;7.03;;;4.15;;
72569;SDS011;60594;50.204;8.844;2023-09-18T05:14:04;7.13;;;4.38;;
72569;SDS011;60594;50.204;8.844;2023-09-18T05:18:58;8.90;;;4.15;;
72569;SDS011;60594;50.204;8.844;2023-09-18T05:21:25;7.15;;;3.92;;
72569;SDS011;60594;50.204;8.844;2023-09-18T05:23:52;8.35;;;3.70;;
72569;SDS011;60594;50.204;8.844;2023-09-18T05:26:20;7.03;;;3.92;;
72569;SDS011;60594;50.204;8.844;2023-09-18T05:28:49;9.30;;;4.63;;
72569;SDS011;60594;50.204;8.844;2023-09-18T05:31:17;10.35;;;4.68;;
72569;SDS011;60594;50.204;8.844;2023-09-18T05:33:43;11.40;;;4.75;;
72569;SDS011;60594;50.204;8.844;2023-09-18T05:36:09;8.85;;;4.93;;
72569;SDS011;60594;50.204;8.844;2023-09-18T05:38:36;8.43;;;4.43;;
72569;SDS011;60594;50.204;8.844;2023-09-18T05:41:02;7.95;;;4.68;;
72569;SDS011;60594;50.204;8.844;2023-09-18T05:43:31;8.18;;;4.82;;
72569;SDS011;60594;50.204;8.844;2023-09-18T05:45:57;10.60;;;4.72;;
72569;SDS011;60594;50.204;8.844;2023-09-18T05:48:25;11.88;;;6.47;;
72569;SDS011;60594;50.204;8.844;2023-09-18T05:50:51;9.10;;;4.70;;
72569;SDS011;60594;50.204;8.844;2023-09-18T05:53:20;9.52;;;5.00;;
72569;SDS011;60594;50.204;8.844;2023-09-18T05:55:47;8.10;;;4.60;;
72569;SDS011;60594;50.204;8.844;2023-09-18T05:58:13;10.70;;;4.72;;
72569;SDS011;60594;50.204;8.844;2023-09-18T06:00:40;8.45;;;4.32;;
72569;SDS011;60594;50.204;8.844;2023-09-18T06:03:06;11.77;;;4.30;;
72569;SDS011;60594;50.204;8.844;2023-09-18T06:05:33;7.93;;;4.38;;
72569;SDS011;60594;50.204;8.844;2023-09-18T06:08:00;9.50;;;4.85;;
72569;SDS011;60594;50.204;8.844;2023-09-18T06:10:29;8.98;;;4.72;;
72569;SDS011;60594;50.204;8.844;2023-09-18T06:12:55;8.98;;;4.75;;
72569;SDS011;60594;50.204;8.844;2023-09-18T06:15:22;8.32;;;3.92;;
72569;SDS011;60594;50.204;8.844;2023-09-18T06:17:48;11.05;;;4.40;;
72569;SDS011;60594;50.204;8.844;2023-09-18T06:20:15;8.32;;;3.95;;
72569;SDS011;60594;50.204;8.844;2023-09-18T06:22:42;11.75;;;4.60;;
72569;SDS011;60594;50.204;8.844;2023-09-18T06:25:08;9.38;;;3.88;;
72569;SDS011;60594;50.204;8.844;2023-09-18T06:27:39;8.93;;;3.72;;
72569;SDS011;60594;50.204;8.844;2023-09-18T06:30:06;7.55;;;3.28;;
72569;SDS011;60594;50.204;8.844;2023-09-18T06:32:33;9.18;;;3.83;;
72569;SDS011;60594;50.204;8.844;2023-09-18T06:35:00;9.98;;;3.95;;
72569;SDS011;60594;50.204;8.844;2023-09-18T06:37:27;7.63;;;3.25;;
72569;SDS011;60594;50.204;8.844;2023-09-18T06:39:55;9.07;;;3.47;;
72569;SDS011;60594;50.204;8.844;2023-09-18T06:42:22;8.85;;;3.40;;
72569;SDS011;60594;50.204;8.844;2023-09-18T06:44:57;8.75;;;3.85;;
72569;SDS011;60594;50.204;8.844;2023-09-18T06:47:24;8.55;;;3.58;;
72569;SDS011;60594;50.204;8.844;2023-09-18T06:49:50;7.00;;;3.35;;
72569;SDS011;60594;50.204;8.844;2023-09-18T06:52:17;8.70;;;3.70;;
72569;SDS011;60594;50.204;8.844;2023-09-18T06:54:44;8.65;;;3.25;;
72569;SDS011;60594;50.204;8.844;2023-09-18T06:57:10;9.77;;;3.55;;
72569;SDS011;60594;50.204;8.844;2023-09-18T06:59:37;10.85;;;4.35;;
72569;SDS011;60594;50.204;8.844;2023-09-18T07:02:03;9.50;;;3.38;;
72569;SDS011;60594;50.204;8.844;2023-09-18T07:04:30;8.05;;;3.22;;
72569;SDS011;60594;50.204;8.844;2023-09-18T07:06:57;8.70;;;3.55;;
72569;SDS011;60594;50.204;8.844;2023-09-18T07:09:24;8.77;;;3.60;;
72569;SDS011;60594;50.204;8.844;2023-09-18T07:11:51;8.48;;;3.33;;
72569;SDS011;60594;50.204;8.844;2023-09-18T07:14:18;8.45;;;2.85;;
72569;SDS011;60594;50.204;8.844;2023-09-18T07:16:45;9.43;;;2.92;;
72569;SDS011;60594;50.204;8.844;2023-09-18T07:19:12;8.40;;;2.95;;
72569;SDS011;60594;50.204;8.844;2023-09-18T07:21:42;7.47;;;2.95;;
72569;SDS011;60594;50.204;8.844;2023-09-18T07:24:09;9.60;;;2.83;;
72569;SDS011;60594;50.204;8.844;2023-09-18T07:26:37;9.77;;;2.50;;
72569;SDS011;60594;50.204;8.844;2023-09-18T07:29:03;10.13;;;2.92;;
72569;SDS011;60594;50.204;8.844;2023-09-18T07:31:30;7.05;;;2.88;;
72569;SDS011;60594;50.204;8.844;2023-09-18T07:33:57;7.47;;;2.65;;
72569;SDS011;60594;50.204;8.844;2023-09-18T07:36:23;10.25;;;2.90;;
72569;SDS011;60594;50.204;8.844;2023-09-18T07:38:51;6.78;;;2.42;;
72569;SDS011;60594;50.204;8.844;2023-09-18T07:41:17;8.55;;;2.70;;
72569;SDS011;60594;50.204;8.844;2023-09-18T07:43:45;7.40;;;2.40;;
72569;SDS011;60594;50.204;8.844;2023-09-18T07:46:12;8.07;;;2.83;;
72569;SDS011;60594;50.204;8.844;2023-09-18T07:48:38;10.20;;;3.10;;
72569;SDS011;60594;50.204;8.844;2023-09-18T07:51:05;8.65;;;3.03;;
72569;SDS011;60594;50.204;8.844;2023-09-18T07:53:32;7.30;;;2.63;;
72569;SDS011;60594;50.204;8.844;2023-09-18T07:55:58;9.13;;;3.03;;
72569;SDS011;60594;50.204;8.844;2023-09-18T07:58:25;7.47;;;2.92;;
72569;SDS011;60594;50.204;8.844;2023-09-18T08:00:54;6.85;;;2.90;;
72569;SDS011;60594;50.204;8.844;2023-09-18T08:03:22;9.63;;;2.80;;
72569;SDS011;60594;50.204;8.844;2023-09-18T08:05:52;5.95;;;2.22;;
72569;SDS011;60594;50.204;8.844;2023-09-18T08:08:20;9.90;;;2.72;;
72569;SDS011;60594;50.204;8.844;2023-09-18T08:10:48;7.25;;;2.75;;
72569;SDS011;60594;50.204;8.844;2023-09-18T08:13:14;10.27;;;2.58;;
72569;SDS011;60594;50.204;8.844;2023-09-18T08:15:41;7.40;;;2.80;;
72569;SDS011;60594;50.204;8.844;2023-09-18T08:18:08;8.68;;;3.03;;
72569;SDS011;60594;50.204;8.844;2023-09-18T08:20:34;8.50;;;2.67;;
72569;SDS011;60594;50.204;8.844;2023-09-18T08:23:03;7.45;;;2.83;;
72569;SDS011;60594;50.204;8.844;2023-09-18T08:25:31;9.23;;;2.58;;
72569;SDS011;60594;50.204;8.844;2023-09-18T08:27:58;7.65;;;2.72;;
72569;SDS011;60594;50.204;8.844;2023-09-18T08:30:24;10.10;;;2.85;;
72569;SDS011;60594;50.204;8.844;2023-09-18T08:32:51;8.80;;;2.50;;
72569;SDS011;60594;50.204;8.844;2023-09-18T08:35:18;14.63;;;4.28;;
72569;SDS011;60594;50.204;8.844;2023-09-18T08:37:45;10.68;;;2.88;;
72569;SDS011;60594;50.204;8.844;2023-09-18T08:40:12;6.75;;;2.33;;
72569;SDS011;60594;50.204;8.844;2023-09-18T08:42:43;7.68;;;2.28;;
72569;SDS011;60594;50.204;8.844;2023-09-18T08:45:13;5.63;;;2.05;;
72569;SDS011;60594;50.204;8.844;2023-09-18T08:47:45;8.02;;;2.40;;
72569;SDS011;60594;50.204;8.844;2023-09-18T08:50:12;9.73;;;2.33;;
72569;SDS011;60594;50.204;8.844;2023-09-18T08:52:41;7.53;;;2.30;;
72569;SDS011;60594;50.204;8.844;2023-09-18T08:55:08;7.50;;;2.80;;
72569;SDS011;60594;50.204;8.844;2023-09-18T08:57:35;6.13;;;1.90;;
72569;SDS011;60594;50.204;8.844;2023-09-18T09:00:02;8.98;;;2.85;;
72569;SDS011;60594;50.204;8.844;2023-09-18T09:02:33;6.38;;;3.00;;
72569;SDS011;60594;50.204;8.844;2023-09-18T09:05:00;7.53;;;2.45;;
72569;SDS011;60594;50.204;8.844;2023-09-18T09:07:27;6.85;;;2.05;;
72569;SDS011;60594;50.204;8.844;2023-09-18T09:09:57;5.60;;;2.20;;
72569;SDS011;60594;50.204;8.844;2023-09-18T09:15:15;5.63;;;1.58;;
72569;SDS011;60594;50.204;8.844;2023-09-18T09:17:42;6.95;;;1.90;;
72569;SDS011;60594;50.204;8.844;2023-09-18T09:20:14;6.20;;;1.90;;
72569;SDS011;60594;50.204;8.844;2023-09-18T09:22:41;7.05;;;2.38;;
72569;SDS011;60594;50.204;8.844;2023-09-18T09:27:47;7.15;;;2.13;;
72569;SDS011;60594;50.204;8.844;2023-09-18T09:30:20;8.43;;;2.00;;
72569;SDS011;60594;50.204;8.844;2023-09-18T09:32:49;6.97;;;2.17;;
72569;SDS011;60594;50.204;8.844;2023-09-18T09:35:22;5.18;;;1.73;;
72569;SDS011;60594;50.204;8.844;2023-09-18T09:37:57;7.65;;;2.05;;
72569;SDS011;60594;50.204;8.844;2023-09-18T09:40:27;4.93;;;1.75;;
72569;SDS011;60594;50.204;8.844;2023-09-18T09:42:56;6.00;;;2.10;;
72569;SDS011;60594;50.204;8.844;2023-09-18T09:45:27;4.85;;;1.63;;
72569;SDS011;60594;50.204;8.844;2023-09-18T09:47:58;5.55;;;2.08;;
72569;SDS011;60594;50.204;8.844;2023-09-18T09:50:26;4.65;;;1.50;;
72569;SDS011;60594;50.204;8.844;2023-09-18T09:52:53;4.00;;;1.70;;
72569;SDS011;60594;50.204;8.844;2023-09-18T09:55:23;5.60;;;1.75;;
72569;SDS011;60594;50.204;8.844;2023-09-18T09:57:58;7.78;;;2.33;;
72569;SDS011;60594;50.204;8.844;2023-09-18T10:00:28;6.45;;;2.22;;
72569;SDS011;60594;50.204;8.844;2023-09-18T10:03:00;5.10;;;1.75;;
72569;SDS011;60594;50.204;8.844;2023-09-18T10:05:31;8.20;;;2.40;;
72569;SDS011;60594;50.204;8.844;2023-09-18T10:07:59;4.43;;;1.80;;
72569;SDS011;60594;50.204;8.844;2023-09-18T10:10:29;15.90;;;2.58;;
72569;SDS011;60594;50.204;8.844;2023-09-18T10:13:03;8.77;;;1.95;;
72569;SDS011;60594;50.204;8.844;2023-09-18T10:15:35;7.28;;;1.92;;
72569;SDS011;60594;50.204;8.844;2023-09-18T10:18:06;3.92;;;1.42;;
72569;SDS011;60594;50.204;8.844;2023-09-18T10:20:37;8.18;;;2.08;;
72569;SDS011;60594;50.204;8.844;2023-09-18T10:23:12;5.20;;;1.98;;
72569;SDS011;60594;50.204;8.844;2023-09-18T10:25:53;7.13;;;1.80;;
72569;SDS011;60594;50.204;8.844;2023-09-18T10:28:23;4.82;;;1.88;;
72569;SDS011;60594;50.204;8.844;2023-09-18T10:30:50;5.82;;;2.40;;
72569;SDS011;60594;50.204;8.844;2023-09-18T10:33:18;7.85;;;2.47;;
72569;SDS011;60594;50.204;8.844;2023-09-18T10:35:45;4.65;;;1.60;;
72569;SDS011;60594;50.204;8.844;2023-09-18T10:38:14;4.40;;;1.70;;
72569;SDS011;60594;50.204;8.844;2023-09-18T10:40:43;5.70;;;1.65;;
72569;SDS011;60594;50.204;8.844;2023-09-18T10:43:10;4.57;;;1.52;;
72569;SDS011;60594;50.204;8.844;2023-09-18T10:45:37;4.68;;;1.73;;
72569;SDS011;60594;50.204;8.844;2023-09-18T10:48:05;5.10;;;1.50;;
72569;SDS011;60594;50.204;8.844;2023-09-18T10:50:34;5.70;;;1.40;;
72569;SDS011;60594;50.204;8.844;2023-09-18T10:53:01;8.27;;;1.90;;
72569;SDS011;60594;50.204;8.844;2023-09-18T10:55:28;3.50;;;1.40;;
72569;SDS011;60594;50.204;8.844;2023-09-18T10:57:55;4.53;;;1.20;;
72569;SDS011;60594;50.204;8.844;2023-09-18T11:00:24;3.90;;;1.02;;
72569;SDS011;60594;50.204;8.844;2023-09-18T11:02:51;3.78;;;1.17;;
72569;SDS011;60594;50.204;8.844;2023-09-18T11:08:31;3.38;;;1.40;;
72569;SDS011;60594;50.204;8.844;2023-09-18T11:11:06;4.45;;;1.20;;
72569;SDS011;60594;50.204;8.844;2023-09-18T11:13:39;3.13;;;1.23;;
72569;SDS011;60594;50.204;8.844;2023-09-18T11:18:42;4.30;;;1.15;;
72569;SDS011;60594;50.204;8.844;2023-09-18T11:21:11;4.78;;;1.40;;
72569;SDS011;60594;50.204;8.844;2023-09-18T11:23:39;4.88;;;1.23;;
72569;SDS011;60594;50.204;8.844;2023-09-18T11:26:09;3.35;;;1.33;;
72569;SDS011;60594;50.204;8.844;2023-09-18T11:28:38;3.28;;;1.10;;
72569;SDS011;60594;50.204;8.844;2023-09-18T11:31:05;3.47;;;1.10;;
72569;SDS011;60594;50.204;8.844;2023-09-18T11:33:32;3.15;;;1.20;;
72569;SDS011;60594;50.204;8.844;2023-09-18T11:36:12;13.60;;;2.63;;
72569;SDS011;60594;50.204;8.844;2023-09-18T11:38:57;5.22;;;1.40;;
72569;SDS011;60594;50.204;8.844;2023-09-18T11:41:29;3.90;;;1.15;;
72569;SDS011;60594;50.204;8.844;2023-09-18T11:46:41;4.00;;;1.15;;
72569;SDS011;60594;50.204;8.844;2023-09-18T11:49:12;4.63;;;1.45;;
72569;SDS011;60594;50.204;8.844;2023-09-18T11:51:39;4.60;;;1.40;;
72569;SDS011;60594;50.204;8.844;2023-09-18T11:54:07;2.55;;;1.05;;
72569;SDS011;60594;50.204;8.844;2023-09-18T11:56:34;4.32;;;1.60;;
72569;SDS011;60594;50.204;8.844;2023-09-18T11:59:01;5.22;;;1.35;;
72569;SDS011;60594;50.204;8.844;2023-09-18T12:01:31;4.00;;;1.23;;
72569;SDS011;60594;50.204;8.844;2023-09-18T12:04:00;3.90;;;1.13;;
72569;SDS011;60594;50.204;8.844;2023-09-18T12:06:28;4.20;;;1.58;;
72569;SDS011;60594;50.204;8.844;2023-09-18T12:08:54;3.65;;;1.13;;
72569;SDS011;60594;50.204;8.844;2023-09-18T12:11:22;3.35;;;1.10;;
72569;SDS011;60594;50.204;8.844;2023-09-18T12:13:52;2.60;;;0.93;;
72569;SDS011;60594;50.204;8.844;2023-09-18T12:16:19;4.78;;;2.20;;
72569;SDS011;60594;50.204;8.844;2023-09-18T12:18:46;4.13;;;1.50;;
72569;SDS011;60594;50.204;8.844;2023-09-18T12:21:14;4.40;;;1.27;;
72569;SDS011;60594;50.204;8.844;2023-09-18T12:23:44;4.50;;;1.30;;
72569;SDS011;60594;50.204;8.844;2023-09-18T12:26:12;4.50;;;1.30;;
72569;SDS011;60594;50.204;8.844;2023-09-18T12:28:42;4.90;;;1.48;;
72569;SDS011;60594;50.204;8.844;2023-09-18T12:31:10;4.50;;;1.33;;
72569;SDS011;60594;50.204;8.844;2023-09-18T12:33:38;5.15;;;1.42;;
72569;SDS011;60594;50.204;8.844;2023-09-18T12:36:06;2.33;;;1.08;;
72569;SDS011;60594;50.204;8.844;2023-09-18T12:38:34;3.40;;;1.33;;
72569;SDS011;60594;50.204;8.844;2023-09-18T12:41:03;4.15;;;1.33;;
72569;SDS011;60594;50.204;8.844;2023-09-18T12:43:41;3.70;;;1.33;;
72569;SDS011;60594;50.204;8.844;2023-09-18T12:46:09;3.97;;;1.27;;
72569;SDS011;60594;50.204;8.844;2023-09-18T12:48:37;3.60;;;1.27;;
72569;SDS011;60594;50.204;8.844;2023-09-18T12:51:05;4.05;;;1.30;;
72569;SDS011;60594;50.204;8.844;2023-09-18T12:53:32;4.53;;;1.98;;
72569;SDS011;60594;50.204;8.844;2023-09-18T12:56:12;4.75;;;1.40;;
72569;SDS011;60594;50.204;8.844;2023-09-18T12:58:40;2.70;;;1.00;;
72569;SDS011;60594;50.204;8.844;2023-09-18T13:01:07;3.28;;;1.10;;
72569;SDS011;60594;50.204;8.844;2023-09-18T13:03:41;3.63;;;1.33;;
72569;SDS011;60594;50.204;8.844;2023-09-18T13:06:09;3.85;;;1.50;;
72569;SDS011;60594;50.204;8.844;2023-09-18T13:08:37;3.10;;;1.25;;
72569;SDS011;60594;50.204;8.844;2023-09-18T13:11:04;5.78;;;1.70;;
72569;SDS011;60594;50.204;8.844;2023-09-18T13:13:32;3.42;;;1.20;;
72569;SDS011;60594;50.204;8.844;2023-09-18T13:16:00;7.70;;;1.52;;
72569;SDS011;60594;50.204;8.844;2023-09-18T13:18:27;5.20;;;1.25;;
72569;SDS011;60594;50.204;8.844;2023-09-18T13:20:54;10.32;;;1.52;;
72569;SDS011;60594;50.204;8.844;2023-09-18T13:23:20;3.75;;;1.35;;
72569;SDS011;60594;50.204;8.844;2023-09-18T13:25:58;5.50;;;1.38;;
72569;SDS011;60594;50.204;8.844;2023-09-18T13:28:25;4.60;;;1.55;;
72569;SDS011;60594;50.204;8.844;2023-09-18T13:30:52;4.22;;;1.92;;
72569;SDS011;60594;50.204;8.844;2023-09-18T13:33:20;4.78;;;1.40;;
72569;SDS011;60594;50.204;8.844;2023-09-18T13:35:46;5.05;;;1.77;;
72569;SDS011;60594;50.204;8.844;2023-09-18T13:38:13;4.20;;;2.05;;
72569;SDS011;60594;50.204;8.844;2023-09-18T13:40:40;6.13;;;1.42;;
72569;SDS011;60594;50.204;8.844;2023-09-18T13:43:08;4.63;;;1.63;;
72569;SDS011;60594;50.204;8.844;2023-09-18T13:45:35;3.78;;;1.60;;
72569;SDS011;60594;50.204;8.844;2023-09-18T13:48:02;3.80;;;1.45;;
72569;SDS011;60594;50.204;8.844;2023-09-18T13:50:31;5.32;;;1.50;;
72569;SDS011;60594;50.204;8.844;2023-09-18T13:52:58;5.50;;;2.03;;
72569;SDS011;60594;50.204;8.844;2023-09-18T13:55:25;5.13;;;1.40;;
72569;SDS011;60594;50.204;8.844;2023-09-18T13:57:52;4.90;;;1.67;;
72569;SDS011;60594;50.204;8.844;2023-09-18T14:00:18;4.47;;;1.52;;
72569;SDS011;60594;50.204;8.844;2023-09-18T14:02:46;3.78;;;1.52;;
72569;SDS011;60594;50.204;8.844;2023-09-18T14:05:13;4.30;;;1.40;;
72569;SDS011;60594;50.204;8.844;2023-09-18T14:07:40;5.25;;;1.45;;
72569;SDS011;60594;50.204;8.844;2023-09-18T14:10:07;4.32;;;1.52;;
72569;SDS011;60594;50.204;8.844;2023-09-18T14:12:36;4.40;;;1.50;;
72569;SDS011;60594;50.204;8.844;2023-09-18T14:15:04;4.00;;;1.42;;
72569;SDS011;60594;50.204;8.844;2023-09-18T14:17:33;4.65;;;1.50;;
72569;SDS011;60594;50.204;8.844;2023-09-18T14:20:00;4.43;;;1.60;;
72569;SDS011;60594;50.204;8.844;2023-09-18T14:22:27;4.35;;;1.58;;
72569;SDS011;60594;50.204;8.844;2023-09-18T14:24:54;3.95;;;1.50;;
72569;SDS011;60594;50.204;8.844;2023-09-18T14:27:20;4.95;;;1.92;;
72569;SDS011;60594;50.204;8.844;2023-09-18T14:29:47;3.67;;;1.52;;
72569;SDS011;60594;50.204;8.844;2023-09-18T14:34:41;4.07;;;1.52;;
72569;SDS011;60594;50.204;8.844;2023-09-18T14:37:08;4.75;;;1.40;;
72569;SDS011;60594;50.204;8.844;2023-09-18T14:39:34;3.70;;;1.25;;
72569;SDS011;60594;50.204;8.844;2023-09-18T14:42:01;4.25;;;1.52;;
72569;SDS011;60594;50.204;8.844;2023-09-18T14:44:27;3.80;;;1.67;;
72569;SDS011;60594;50.204;8.844;2023-09-18T14:46:54;5.25;;;1.55;;
72569;SDS011;60594;50.204;8.844;2023-09-18T14:49:21;4.55;;;1.55;;
72569;SDS011;60594;50.204;8.844;2023-09-18T14:51:47;3.13;;;1.27;;
72569;SDS011;60594;50.204;8.844;2023-09-18T14:56:42;4.47;;;1.70;;
72569;SDS011;60594;50.204;8.844;2023-09-18T14:59:08;5.85;;;1.50;;
72569;SDS011;60594;50.204;8.844;2023-09-18T15:01:35;2.97;;;1.38;;
72569;SDS011;60594;50.204;8.844;2023-09-18T15:04:01;3.83;;;1.33;;
72569;SDS011;60594;50.204;8.844;2023-09-18T15:06:28;5.28;;;1.60;;
72569;SDS011;60594;50.204;8.844;2023-09-18T15:08:55;8.02;;;1.65;;
72569;SDS011;60594;50.204;8.844;2023-09-18T15:11:21;4.90;;;1.60;;
72569;SDS011;60594;50.204;8.844;2023-09-18T15:13:49;4.32;;;1.52;;
72569;SDS011;60594;50.204;8.844;2023-09-18T15:16:15;4.57;;;2.00;;
72569;SDS011;60594;50.204;8.844;2023-09-18T15:18:42;9.20;;;2.90;;
72569;SDS011;60594;50.204;8.844;2023-09-18T15:21:10;5.78;;;1.63;;
72569;SDS011;60594;50.204;8.844;2023-09-18T15:23:36;4.93;;;1.52;;
72569;SDS011;60594;50.204;8.844;2023-09-18T15:26:03;3.72;;;1.60;;